Time;durP1;ratioP1;P1;durP2;ratioP2;P2;SDS_P1;SDS_P2;PMS_P1;PMS_P2;Temp;Humidity;BMP_temperature;BMP_pressure;BME280_temperature;BME280_humidity;BME280_pressure;Samples;Min_cycle;Max_cycle;Signal;HPM_P1;HPM_P2
2022/08/02 00:00:05;;;;;;;2.15;1.60;;;;;;;21.15;65.35;94356.97;5072581;28;20210;-65
2022/08/02 00:02:31;;;;;;;3.88;1.80;;;;;;;20.95;66.23;94340.66;5072687;28;20200;-66
2022/08/02 00:04:56;;;;;;;1.70;1.38;;;;;;;20.97;66.41;94344.59;5072620;28;20177;-65
2022/08/02 00:07:22;;;;;;;1.48;1.30;;;;;;;20.93;66.53;94335.66;5054339;28;20223;-61
2022/08/02 00:09:47;;;;;;;1.65;1.55;;;;;;;20.83;67.11;94323.16;5072501;28;20647;-61
2022/08/02 00:12:13;;;;;;;2.25;1.45;;;;;;;20.67;67.36;94313.22;5072432;28;20213;-61
2022/08/02 00:14:38;;;;;;;4.20;1.58;;;;;;;20.72;68.03;94308.28;5072544;28;20181;-63
2022/08/02 00:17:04;;;;;;;1.50;1.40;;;;;;;20.68;68.76;94286.41;5072628;28;20252;-64
2022/08/02 00:19:30;;;;;;;1.83;1.70;;;;;;;20.68;68.70;94295.94;5054374;28;20177;-64
2022/08/02 00:21:55;;;;;;;1.63;1.52;;;;;;;20.72;68.75;94291.97;5072607;28;20759;-64
2022/08/02 00:24:21;;;;;;;3.83;2.08;;;;;;;20.77;68.53;94305.84;5072580;28;20183;-65
2022/08/02 00:26:46;;;;;;;2.10;1.80;;;;;;;20.73;68.86;94293.53;5072210;28;20200;-63
2022/08/02 00:29:12;;;;;;;1.70;1.60;;;;;;;21.03;68.64;94315.41;5072216;28;20662;-62
2022/08/02 00:31:38;;;;;;;1.95;1.60;;;;;;;20.81;69.34;94296.72;5072270;28;20213;-64
2022/08/02 00:34:03;;;;;;;2.75;2.10;;;;;;;20.67;70.98;94277.06;5053126;28;20712;-64
2022/08/02 00:36:29;;;;;;;1.95;1.75;;;;;;;20.30;72.31;94248.47;5053939;28;20216;-64
2022/08/02 00:38:54;;;;;;;4.93;2.10;;;;;;;20.24;72.12;94268.09;5072176;28;20725;-66
2022/08/02 00:41:21;;;;;;;1.98;1.30;;;;;;;19.99;71.36;94279.97;5071855;28;20595;-65
2022/08/02 00:43:49;;;;;;;2.58;1.40;;;;;;;19.42;73.84;94226.25;5054095;28;20196;-63
2022/08/02 00:46:15;;;;;;;1.20;1.10;;;;;;;19.74;72.54;94273.75;5054023;28;20208;-61
2022/08/02 00:48:41;;;;;;;1.10;1.10;;;;;;;19.69;72.32;94271.78;5071743;28;20204;-64
2022/08/02 00:51:07;;;;;;;1.50;1.40;;;;;;;19.60;72.47;94272.94;5071869;28;20220;-63
2022/08/02 00:53:32;;;;;;;1.08;0.95;;;;;;;19.60;71.35;94292.75;5071926;28;20181;-62
2022/08/02 00:55:58;;;;;;;1.05;0.95;;;;;;;19.50;72.42;94271.69;5071796;28;20224;-63
2022/08/02 00:58:24;;;;;;;3.35;1.33;;;;;;;19.52;71.55;94286.00;5071870;28;20678;-61
2022/08/02 01:00:49;;;;;;;1.73;1.45;;;;;;;19.27;73.46;94257.31;5053822;28;20281;-62
2022/08/02 01:03:15;;;;;;;1.95;1.23;;;;;;;19.44;72.83;94280.22;5053876;28;20185;-64
2022/08/02 01:05:41;;;;;;;1.83;1.10;;;;;;;19.16;73.43;94267.38;5071735;28;20288;-65
2022/08/02 01:08:06;;;;;;;1.67;1.30;;;;;;;19.20;73.74;94268.59;5071663;28;20200;-66
2022/08/02 01:10:32;;;;;;;5.32;1.52;;;;;;;18.92;75.33;94253.19;5071704;28;20205;-62
2022/08/02 01:12:57;;;;;;;1.20;1.10;;;;;;;18.95;75.41;94254.56;5071419;28;20650;-63
2022/08/02 01:15:23;;;;;;;2.40;1.50;;;;;;;18.94;74.63;94278.75;5071336;28;20616;-62
2022/08/02 01:17:56;;;;;;;1.40;1.27;;;;;;;18.88;74.83;94270.00;5071155;28;20266;-62
2022/08/02 01:20:40;;;;;;;1.50;1.40;;;;;;;18.76;76.58;94244.97;5071387;28;21609;-63
2022/08/02 01:23:20;;;;;;;2.15;1.40;;;;;;;18.49;77.89;94235.47;5071400;28;20192;-64
2022/08/02 01:26:13;;;;;;;1.60;1.30;;;;;;;18.64;76.84;94260.16;5053134;28;20297;-65
2022/08/02 01:28:57;;;;;;;2.50;1.60;;;;;;;18.34;79.75;94232.97;5053325;28;20658;-63
2022/08/02 01:31:25;;;;;;;2.08;1.38;;;;;;;18.46;78.79;94253.88;5071389;28;20205;-65
2022/08/02 01:34:04;;;;;;;3.63;1.63;;;;;;;18.28;80.63;94242.22;5053222;28;20193;-64
2022/08/02 01:36:55;;;;;;;2.15;1.92;;;;;;;18.29;80.99;94251.56;5071200;28;20212;-63
2022/08/02 01:39:26;;;;;;;2.38;2.00;;;;;;;18.14;82.32;94239.75;5071161;28;20213;-61
2022/08/02 01:41:54;;;;;;;2.13;1.92;;;;;;;18.15;83.07;94252.44;5053107;28;20216;-62
2022/08/02 01:44:22;;;;;;;3.28;2.00;;;;;;;18.09;84.64;94250.59;5071197;28;20288;-64
2022/08/02 01:46:49;;;;;;;2.70;2.17;;;;;;;18.06;84.56;94268.97;5071129;28;20213;-64
2022/08/02 01:49:17;;;;;;;4.13;2.42;;;;;;;18.15;84.98;94273.00;5070843;28;20219;-62
2022/08/02 01:54:57;;;;;;;5.18;2.17;;;;;;;17.92;86.76;94272.41;5029057;28;20224;-64
2022/08/02 01:57:25;;;;;;;4.15;2.28;;;;;;;17.75;88.58;94265.91;5064805;28;20220;-61
2022/08/02 01:59:52;;;;;;;4.53;2.55;;;;;;;17.91;87.44;94282.88;5070522;28;20180;-61
2022/08/02 02:02:19;;;;;;;4.85;2.33;;;;;;;17.85;87.99;94289.56;5070586;28;20212;-62
2022/08/02 02:04:47;;;;;;;4.35;2.25;;;;;;;18.01;86.90;94299.59;5052726;28;20184;-62
2022/08/02 02:07:14;;;;;;;3.78;2.75;;;;;;;17.85;86.30;94302.41;5070918;28;20266;-60
2022/08/02 02:09:41;;;;;;;3.28;2.58;;;;;;;17.82;88.02;94287.34;5070723;28;20222;-66
2022/08/02 02:12:10;;;;;;;2.85;2.60;;;;;;;17.86;88.09;94288.56;5070955;28;20223;-64
2022/08/02 02:14:37;;;;;;;3.45;2.60;;;;;;;17.95;87.80;94302.91;5052752;28;20275;-61
2022/08/02 02:17:03;;;;;;;4.00;2.45;;;;;;;18.05;88.00;94300.81;5070728;28;20748;-62
2022/08/02 02:19:32;;;;;;;9.00;2.40;;;;;;;18.07;87.48;94304.00;5070839;28;20192;-65
2022/08/02 02:21:57;;;;;;;5.47;2.75;;;;;;;18.10;87.64;94308.78;5052575;28;20217;-62
2022/08/02 02:24:23;;;;;;;4.35;2.33;;;;;;;17.93;88.84;94293.78;5070623;28;20298;-66
2022/08/02 02:26:50;;;;;;;4.68;2.70;;;;;;;17.98;88.68;94301.72;5070406;28;20641;-64
2022/08/02 02:29:19;;;;;;;2.75;2.55;;;;;;;17.93;88.32;94302.28;5070436;28;20522;-63
2022/08/02 02:31:46;;;;;;;2.85;2.35;;;;;;;17.76;89.93;94280.34;5070711;28;20743;-61
2022/08/02 02:34:22;;;;;;;3.25;2.47;;;;;;;17.94;89.19;94303.88;5070394;28;20639;-64
2022/08/02 02:36:50;;;;;;;3.33;3.03;;;;;;;17.86;89.37;94300.63;5052360;28;20208;-64
2022/08/02 02:39:21;;;;;;;5.32;2.50;;;;;;;17.83;90.30;94286.38;5070301;28;20199;-64
2022/08/02 02:41:48;;;;;;;4.93;2.70;;;;;;;17.98;89.91;94292.25;5070502;28;20287;-64
2022/08/02 02:44:18;;;;;;;5.57;2.78;;;;;;;17.97;87.43;94324.09;5070419;28;20212;-64
2022/08/02 02:46:47;;;;;;;2.58;2.30;;;;;;;18.14;87.56;94332.38;5070334;28;20196;-65
2022/08/02 02:49:15;;;;;;;5.43;3.30;;;;;;;18.00;86.33;94346.88;5070362;28;20188;-65
2022/08/02 02:51:41;;;;;;;4.93;2.53;;;;;;;17.92;87.00;94334.13;5052493;28;20223;-61
2022/08/02 02:54:08;;;;;;;5.85;2.33;;;;;;;17.77;86.35;94338.53;5070595;28;20216;-62
2022/08/02 02:56:35;;;;;;;2.20;2.00;;;;;;;17.74;85.55;94336.31;5070388;28;20209;-64
2022/08/02 02:59:02;;;;;;;1.70;1.60;;;;;;;17.70;85.01;94353.06;5070030;28;20288;-65
2022/08/02 03:01:28;;;;;;;2.30;2.20;;;;;;;17.62;85.07;94358.31;5070119;28;20244;-65
2022/08/02 03:03:59;;;;;;;4.18;2.28;;;;;;;17.62;85.08;94348.03;5070004;28;20189;-64
2022/08/02 03:06:25;;;;;;;4.80;2.13;;;;;;;17.66;83.01;94385.25;5070154;28;20708;-63
2022/08/02 03:08:51;;;;;;;3.22;2.13;;;;;;;17.73;83.23;94378.44;5070141;28;20213;-62
2022/08/02 03:11:17;;;;;;;3.13;2.03;;;;;;;17.88;84.51;94353.47;5069892;28;20280;-62
2022/08/02 03:13:43;;;;;;;2.55;2.03;;;;;;;17.97;82.08;94390.97;5072508;28;20187;-61
2022/08/02 03:16:09;;;;;;;2.08;1.88;;;;;;;17.96;81.70;94398.84;5073720;28;20674;-65
2022/08/02 03:18:38;;;;;;;3.40;2.00;;;;;;;18.02;82.05;94393.78;5073781;28;20189;-62
2022/08/02 03:21:10;;;;;;;2.20;2.00;;;;;;;17.89;82.23;94383.38;5073481;28;20255;-62
2022/08/02 03:23:36;;;;;;;9.65;2.08;;;;;;;17.86;82.92;94359.75;5073279;28;20658;-61
2022/08/02 03:26:02;;;;;;;2.95;2.30;;;;;;;17.89;81.49;94398.00;5073261;28;20207;-63
2022/08/02 03:28:27;;;;;;;1.90;1.80;;;;;;;17.85;83.41;94359.00;5055166;28;20213;-62
2022/08/02 03:30:53;;;;;;;3.25;2.20;;;;;;;17.85;80.22;94415.56;5073216;28;20240;-67
2022/08/02 03:33:19;;;;;;;3.10;2.45;;;;;;;17.73;82.07;94382.78;5073317;28;20277;-64
2022/08/02 03:35:47;;;;;;;4.22;2.15;;;;;;;17.64;82.76;94364.06;5073102;28;20223;-61
2022/08/02 03:38:15;;;;;;;2.10;1.67;;;;;;;17.60;83.77;94342.25;5072891;28;20213;-62
2022/08/02 03:40:44;;;;;;;2.53;2.33;;;;;;;17.74;81.58;94389.50;5073006;28;20272;-62
2022/08/02 03:43:11;;;;;;;2.95;1.85;;;;;;;17.82;81.54;94392.78;5073532;28;20256;-62
2022/08/02 03:45:40;;;;;;;4.70;2.50;;;;;;;17.82;79.47;94441.63;5072950;28;20206;-63
2022/08/02 03:48:07;;;;;;;2.47;2.28;;;;;;;17.71;79.64;94431.81;5054815;28;20212;-61
2022/08/02 03:50:35;;;;;;;11.73;2.65;;;;;;;17.70;79.67;94424.25;5072518;28;20693;-62
2022/08/02 03:53:00;;;;;;;3.63;2.13;;;;;;;17.59;80.19;94412.66;5072693;28;20606;-61
2022/08/02 03:55:26;;;;;;;4.18;1.90;;;;;;;17.72;79.92;94423.09;5072535;28;20207;-61
2022/08/02 03:57:52;;;;;;;2.10;1.90;;;;;;;17.78;80.68;94412.09;5072640;28;20227;-61
2022/08/02 04:00:20;;;;;;;4.10;1.90;;;;;;;17.74;85.94;94326.00;5072744;28;20629;-66
2022/08/02 04:02:46;;;;;;;2.28;2.08;;;;;;;17.90;82.12;94407.28;5073020;28;20187;-65
2022/08/02 04:05:12;;;;;;;4.43;1.90;;;;;;;18.01;79.78;94445.44;5072497;28;20176;-65
2022/08/02 04:07:37;;;;;;;3.13;2.03;;;;;;;18.00;78.90;94460.06;5072600;28;20215;-61
2022/08/02 04:10:04;;;;;;;29.17;15.55;;;;;;;18.22;89.49;94289.28;5072435;28;20185;-61
2022/08/02 04:12:29;;;;;;;4.60;2.60;;;;;;;18.46;79.01;94475.28;5072432;28;20212;-59
2022/08/02 04:14:55;;;;;;;10.32;6.25;;;;;;;18.64;86.72;94352.84;5072411;28;20221;-64
2022/08/02 04:17:22;;;;;;;19.23;9.35;;;;;;;18.85;87.96;94337.34;5072059;28;20270;-64
2022/08/02 04:19:52;;;;;;;4.55;2.55;;;;;;;19.03;82.84;94424.47;5054262;28;20238;-60
2022/08/02 04:22:28;;;;;;;8.35;4.25;;;;;;;19.00;82.75;94423.09;5072171;28;20220;-63
2022/08/02 04:24:56;;;;;;;4.22;3.00;;;;;;;19.09;79.71;94476.06;5071931;28;20654;-60
2022/08/02 04:27:22;;;;;;;2.88;2.30;;;;;;;19.12;78.23;94487.78;5072620;28;20258;-61
2022/08/02 04:29:48;;;;;;;2.92;2.33;;;;;;;18.98;77.28;94504.13;5054261;28;20193;-61
2022/08/02 04:32:16;;;;;;;4.20;3.00;;;;;;;19.12;79.06;94475.72;5072407;28;20299;-60
2022/08/02 04:34:43;;;;;;;4.45;2.38;;;;;;;19.17;77.39;94490.59;5072306;28;20185;-60
2022/08/02 04:37:11;;;;;;;7.47;2.97;;;;;;;19.15;78.26;94484.84;5072181;28;20660;-60
2022/08/02 04:39:39;;;;;;;3.92;2.60;;;;;;;19.38;74.04;94557.66;5072003;28;20261;-61
2022/08/02 04:42:05;;;;;;;3.55;2.50;;;;;;;19.13;73.94;94543.50;5071835;28;20215;-64
2022/08/02 04:44:31;;;;;;;3.30;2.60;;;;;;;18.91;74.10;94542.69;5072139;28;20180;-62
2022/08/02 04:47:04;;;;;;;3.15;2.65;;;;;;;18.67;75.05;94525.00;5072236;28;20216;-65
2022/08/02 04:49:30;;;;;;;4.47;2.80;;;;;;;18.74;78.12;94460.69;5071927;28;20217;-64
2022/08/02 04:51:55;;;;;;;6.00;3.05;;;;;;;18.73;77.08;94480.50;5072028;28;20621;-65
2022/08/02 04:54:20;;;;;;;4.65;2.65;;;;;;;18.66;75.92;94510.56;5071930;28;20181;-67
2022/08/02 04:56:46;;;;;;;4.07;2.60;;;;;;;18.75;75.72;94518.94;5072086;28;20239;-62
2022/08/02 04:59:12;;;;;;;3.40;2.67;;;;;;;18.81;76.09;94497.59;5072016;28;20567;-63
2022/08/02 05:01:41;;;;;;;2.72;2.53;;;;;;;18.73;76.22;94500.31;5053704;28;20218;-61
2022/08/02 05:04:06;;;;;;;4.47;2.97;;;;;;;18.55;76.29;94498.16;5071570;28;20584;-65
2022/08/02 05:06:32;;;;;;;4.90;2.58;;;;;;;18.74;76.76;94476.97;5071588;28;20686;-67
2022/08/02 05:08:57;;;;;;;5.85;3.47;;;;;;;18.80;77.17;94471.06;5071545;28;20589;-67
2022/08/02 05:11:24;;;;;;;5.00;2.80;;;;;;;19.02;77.61;94469.28;5053692;28;20236;-63
2022/08/02 05:13:49;;;;;;;4.00;2.58;;;;;;;19.46;89.33;94298.84;5071266;28;20234;-64
2022/08/02 05:16:15;;;;;;;6.20;2.70;;;;;;;19.99;85.89;94381.44;5070021;28;20212;-64
2022/08/02 05:18:41;;;;;;;4.43;2.90;;;;;;;20.40;79.42;94482.06;5069275;28;20193;-60
2022/08/02 05:21:06;;;;;;;5.93;2.67;;;;;;;20.91;73.91;94588.34;5070554;28;20256;-61
2022/08/02 05:23:31;;;;;;;3.63;2.85;;;;;;;21.15;73.58;94579.31;5071391;28;20322;-61
2022/08/02 05:25:57;;;;;;;7.18;2.88;;;;;;;21.47;72.90;94587.09;5071497;28;20220;-66
2022/08/02 05:28:23;;;;;;;4.32;2.80;;;;;;;21.75;70.71;94623.19;5071342;28;20243;-62
2022/08/02 05:30:49;;;;;;;4.55;3.58;;;;;;;21.90;77.78;94485.81;5053217;28;20701;-65
2022/08/02 05:33:15;;;;;;;6.22;3.63;;;;;;;22.25;71.02;94638.13;5071832;28;20724;-60
2022/08/02 05:35:40;;;;;;;9.25;3.35;;;;;;;22.33;68.81;94652.66;5070296;28;20292;-62
2022/08/02 05:38:06;;;;;;;8.75;3.60;;;;;;;22.44;68.49;94670.19;5053345;28;20182;-63
2022/08/02 05:40:31;;;;;;;5.93;3.08;;;;;;;22.51;68.50;94660.59;5053310;28;20212;-61
2022/08/02 05:42:57;;;;;;;5.93;3.47;;;;;;;22.63;67.14;94682.31;5071230;28;20193;-65
2022/08/02 05:45:22;;;;;;;6.25;3.53;;;;;;;22.61;62.35;94769.84;5071122;28;20208;-62
2022/08/02 05:47:48;;;;;;;10.63;4.03;;;;;;;21.96;65.41;94671.41;5071009;28;20587;-65
2022/08/02 05:50:13;;;;;;;11.48;3.25;;;;;;;21.83;69.86;94573.81;5070765;28;20181;-65
2022/08/02 05:52:48;;;;;;;5.30;3.17;;;;;;;21.94;70.85;94562.84;5071141;28;20220;-64
2022/08/02 05:55:21;;;;;;;9.48;3.25;;;;;;;21.99;68.30;94601.09;5071007;28;20286;-62
2022/08/02 05:57:52;;;;;;;6.22;3.28;;;;;;;22.01;69.81;94592.13;5070988;28;20673;-61
2022/08/02 06:00:29;;;;;;;8.73;2.80;;;;;;;22.32;69.64;94586.31;5070900;28;20180;-60
2022/08/02 06:02:57;;;;;;;7.25;3.35;;;;;;;22.52;63.40;94739.94;5071059;28;20690;-61
2022/08/02 06:05:25;;;;;;;9.43;3.45;;;;;;;22.58;64.24;94707.28;5070945;28;20221;-61
2022/08/02 06:07:54;;;;;;;6.90;3.30;;;;;;;22.85;64.55;94699.22;5070656;28;20235;-63
2022/08/02 06:10:20;;;;;;;6.43;3.28;;;;;;;22.95;62.79;94741.09;5070768;28;21036;-65
2022/08/02 06:13:02;;;;;;;5.55;3.15;;;;;;;23.02;63.54;94708.16;5070934;28;20181;-65
2022/08/02 06:15:27;;;;;;;4.43;2.78;;;;;;;23.23;62.62;94740.84;5070912;28;20211;-65
2022/08/02 06:17:53;;;;;;;7.68;3.20;;;;;;;23.25;61.98;94739.59;5070888;28;20189;-63
2022/08/02 06:20:19;;;;;;;6.35;2.97;;;;;;;23.16;59.99;94797.91;5070663;28;20215;-63
2022/08/02 06:22:45;;;;;;;5.30;2.40;;;;;;;22.98;60.60;94763.22;5070652;28;20189;-61
2022/08/02 06:25:11;;;;;;;3.97;2.60;;;;;;;23.07;59.83;94770.59;5070570;28;20193;-61
2022/08/02 06:27:38;;;;;;;10.00;3.10;;;;;;;23.29;59.83;94769.31;5070545;28;20295;-60
2022/08/02 06:30:05;;;;;;;6.60;2.70;;;;;;;23.38;59.76;94776.91;5070677;28;20177;-64
2022/08/02 06:32:33;;;;;;;4.00;2.70;;;;;;;23.34;60.10;94754.00;5070674;28;20311;-62
2022/08/02 06:34:59;;;;;;;3.58;2.80;;;;;;;23.49;59.02;94784.88;5070615;28;20193;-65
2022/08/02 06:37:49;;;;;;;2.97;2.42;;;;;;;23.61;57.37;94824.78;5070338;28;20213;-64
2022/08/02 06:40:34;;;;;;;3.90;2.60;;;;;;;23.28;55.60;94862.94;5070172;28;20192;-65
2022/08/02 06:43:05;;;;;;;4.05;1.90;;;;;;;22.96;55.84;94856.00;5052306;28;20279;-64
2022/08/02 06:45:33;;;;;;;5.53;1.98;;;;;;;22.70;55.95;94846.44;5052203;28;20209;-61
2022/08/02 06:47:58;;;;;;;1.90;1.80;;;;;;;22.62;56.33;94825.91;5073336;28;20212;-64
2022/08/02 06:50:24;;;;;;;2.97;2.25;;;;;;;22.46;56.71;94802.94;5055984;28;20216;-63
2022/08/02 06:52:49;;;;;;;2.72;2.50;;;;;;;22.46;56.89;94798.53;5074035;28;20658;-62
2022/08/02 06:55:15;;;;;;;4.20;1.65;;;;;;;22.62;56.70;94809.53;5074018;28;20212;-65
2022/08/02 06:57:41;;;;;;;2.53;1.77;;;;;;;22.52;55.90;94817.69;5073677;28;20284;-64
2022/08/02 07:00:07;;;;;;;8.20;1.95;;;;;;;22.54;57.76;94767.22;5073580;28;20209;-65
2022/08/02 07:02:34;;;;;;;4.10;1.73;;;;;;;22.78;56.10;94814.31;5073522;28;20234;-63
2022/08/02 07:05:00;;;;;;;2.25;2.05;;;;;;;23.06;56.57;94791.53;5073530;28;20188;-62
2022/08/02 07:07:26;;;;;;;3.28;1.85;;;;;;;23.07;55.15;94826.84;5073458;28;20209;-63
2022/08/02 07:09:52;;;;;;;4.57;1.60;;;;;;;23.03;55.59;94821.28;5055579;28;20196;-62
2022/08/02 07:12:18;;;;;;;3.15;1.73;;;;;;;22.72;54.26;94852.22;5073750;28;20622;-65
2022/08/02 07:14:43;;;;;;;3.30;2.00;;;;;;;22.85;55.54;94808.13;5073745;28;20640;-64
2022/08/02 07:17:09;;;;;;;2.45;1.80;;;;;;;22.81;55.19;94827.69;5073575;28;20257;-64
2022/08/02 07:19:34;;;;;;;4.75;2.15;;;;;;;23.00;54.57;94826.88;5055448;28;20250;-65
2022/08/02 07:22:00;;;;;;;3.40;1.90;;;;;;;23.02;54.54;94847.41;5073274;28;20773;-60
2022/08/02 07:24:26;;;;;;;2.38;2.17;;;;;;;23.28;54.21;94855.97;5073377;28;20271;-64
2022/08/02 07:26:52;;;;;;;1.73;1.63;;;;;;;23.08;54.20;94833.66;5073439;28;20270;-65
2022/08/02 07:29:17;;;;;;;2.92;1.70;;;;;;;23.15;53.83;94853.38;5073423;28;20177;-61
2022/08/02 07:31:42;;;;;;;1.80;1.70;;;;;;;23.12;53.58;94840.03;5073655;28;20577;-64
2022/08/02 07:34:08;;;;;;;2.10;1.58;;;;;;;23.21;54.21;94837.00;5073325;28;20203;-65
2022/08/02 07:36:52;;;;;;;3.90;1.63;;;;;;;23.50;54.85;94811.63;5073350;28;20752;-61
2022/08/02 07:39:17;;;;;;;2.83;2.03;;;;;;;23.80;54.15;94836.06;5073256;28;20192;-60
2022/08/02 07:41:45;;;;;;;3.00;2.10;;;;;;;24.10;54.14;94821.56;5073155;28;20223;-66
2022/08/02 07:44:10;;;;;;;7.68;2.30;;;;;;;24.23;53.17;94865.69;5073101;28;20216;-61
2022/08/02 07:46:35;;;;;;;1.90;1.80;;;;;;;24.41;51.10;94907.38;5073249;28;20208;-61
2022/08/02 07:49:01;;;;;;;3.15;1.95;;;;;;;24.53;53.21;94850.28;5072853;28;20638;-66
2022/08/02 07:51:26;;;;;;;1.75;1.65;;;;;;;24.61;52.00;94886.44;5073214;28;20204;-64
2022/08/02 07:53:52;;;;;;;2.50;1.73;;;;;;;24.36;52.08;94868.19;5072965;28;20678;-65
2022/08/02 07:56:17;;;;;;;2.88;1.77;;;;;;;24.45;51.72;94868.75;5073120;28;20197;-63
2022/08/02 07:58:43;;;;;;;1.90;1.55;;;;;;;24.31;51.43;94883.63;5072134;28;20268;-62
2022/08/02 08:01:09;;;;;;;3.20;1.52;;;;;;;24.56;52.05;94870.69;5073184;28;20212;-65
2022/08/02 08:03:34;;;;;;;2.97;1.27;;;;;;;24.66;49.97;94923.84;5072843;28;20193;-63
2022/08/02 08:06:00;;;;;;;1.60;1.50;;;;;;;24.42;51.58;94859.56;5072609;28;20220;-64
2022/08/02 08:08:25;;;;;;;2.72;1.63;;;;;;;24.58;51.36;94874.69;5072632;28;20689;-65
2022/08/02 08:10:51;;;;;;;3.22;1.65;;;;;;;24.66;50.52;94895.22;5072719;28;20251;-62
2022/08/02 08:13:16;;;;;;;2.97;1.50;;;;;;;24.90;49.90;94910.09;5072696;28;20181;-64
2022/08/02 08:15:43;;;;;;;2.60;1.50;;;;;;;25.11;49.35;94921.16;5072711;28;20578;-64
2022/08/02 08:18:08;;;;;;;1.33;1.23;;;;;;;25.22;50.09;94902.22;5072562;28;20575;-64
2022/08/02 08:20:33;;;;;;;1.27;1.13;;;;;;;25.35;49.27;94931.53;5072296;28;20577;-65
2022/08/02 08:22:59;;;;;;;2.55;1.20;;;;;;;25.30;49.35;94925.38;5072559;28;20192;-62
2022/08/02 08:25:24;;;;;;;1.55;1.25;;;;;;;25.51;48.55;94938.06;5072311;28;20624;-66
2022/08/02 08:27:51;;;;;;;1.85;1.40;;;;;;;25.44;48.54;94932.09;5072270;28;20200;-64
2022/08/02 08:30:18;;;;;;;1.67;1.20;;;;;;;25.49;49.16;94908.84;5072110;28;20669;-65
2022/08/02 08:32:44;;;;;;;3.22;1.50;;;;;;;25.34;48.58;94919.53;5072562;28;20185;-65
2022/08/02 08:35:10;;;;;;;5.28;1.92;;;;;;;25.51;49.51;94878.94;5072142;28;20192;-65
2022/08/02 08:37:36;;;;;;;2.72;2.10;;;;;;;25.67;49.84;94885.41;5054397;28;20568;-65
2022/08/02 08:40:09;;;;;;;1.35;1.20;;;;;;;25.86;48.66;94925.28;5072015;28;20252;-66
2022/08/02 08:42:37;;;;;;;2.95;1.40;;;;;;;26.06;48.86;94908.41;5072195;28;20662;-65
2022/08/02 08:45:03;;;;;;;1.75;1.35;;;;;;;26.16;48.33;94920.97;5071893;28;20272;-64
2022/08/02 08:47:37;;;;;;;2.72;1.80;;;;;;;26.14;47.93;94929.00;5071928;28;20303;-64
2022/08/02 08:50:19;;;;;;;2.50;2.30;;;;;;;26.14;47.31;94939.41;5053994;28;20185;-62
2022/08/02 08:52:50;;;;;;;2.30;2.10;;;;;;;26.16;49.40;94863.63;5054094;28;20189;-65
2022/08/02 08:55:16;;;;;;;3.03;1.35;;;;;;;26.01;47.45;94931.72;5071907;28;20192;-63
2022/08/02 08:57:42;;;;;;;1.73;1.10;;;;;;;25.75;48.89;94880.72;5071782;28;20185;-65
2022/08/02 09:00:11;;;;;;;2.47;1.10;;;;;;;25.82;49.17;94879.84;5071658;28;20237;-66
2022/08/02 09:02:40;;;;;;;2.90;0.90;;;;;;;26.02;47.77;94919.50;5053693;28;20242;-65
2022/08/02 09:05:12;;;;;;;1.00;1.00;;;;;;;26.35;49.26;94865.97;5071594;28;20184;-63
2022/08/02 09:07:40;;;;;;;1.80;1.08;;;;;;;26.29;47.88;94912.97;5072125;28;20753;-64
2022/08/02 09:10:30;;;;;;;1.50;1.38;;;;;;;26.64;47.78;94917.31;5071522;28;20191;-63
2022/08/02 09:13:05;;;;;;;1.30;1.05;;;;;;;26.82;48.71;94879.16;5053732;28;20674;-66
2022/08/02 09:15:30;;;;;;;1.85;1.13;;;;;;;26.74;47.10;94936.88;5071479;28;20619;-63
2022/08/02 09:17:56;;;;;;;1.20;1.10;;;;;;;27.16;48.87;94874.00;5071717;28;20222;-67
2022/08/02 09:20:21;;;;;;;1.88;1.10;;;;;;;27.31;48.02;94894.44;5071510;28;20192;-66
2022/08/02 09:23:08;;;;;;;1.23;1.00;;;;;;;27.61;46.26;94957.06;5071484;28;20604;-65
2022/08/02 09:25:34;;;;;;;3.33;1.10;;;;;;;27.39;45.85;94960.22;5071562;28;20213;-65
2022/08/02 09:28:01;;;;;;;0.73;0.73;;;;;;;27.53;44.52;94997.38;5071417;28;20219;-61
2022/08/02 09:30:27;;;;;;;3.55;0.90;;;;;;;27.49;43.47;95030.22;5053321;28;20231;-64
2022/08/02 09:32:52;;;;;;;1.70;0.85;;;;;;;27.27;44.30;94977.66;5071246;28;20264;-66
2022/08/02 09:35:35;;;;;;;2.88;1.00;;;;;;;27.41;43.73;94993.97;5071189;28;20207;-61
2022/08/02 09:38:13;;;;;;;1.50;0.82;;;;;;;27.61;44.39;94983.19;5071578;28;20205;-62
2022/08/02 09:40:45;;;;;;;2.58;0.88;;;;;;;26.88;46.13;94899.16;5071320;28;20270;-64
2022/08/02 09:43:11;;;;;;;1.17;0.88;;;;;;;26.96;46.62;94891.78;5071479;28;20645;-65
2022/08/02 09:45:36;;;;;;;0.70;0.70;;;;;;;27.00;45.27;94939.91;5078523;22;20221;-61
2022/08/02 09:48:11;;;;;;;0.70;0.70;;;;;;;27.24;44.53;94957.22;5070912;28;20270;-61
2022/08/02 09:50:39;;;;;;;0.90;0.90;;;;;;;27.36;43.60;94991.22;5071159;28;20288;-62
2022/08/02 09:53:05;;;;;;;1.25;1.02;;;;;;;27.15;44.08;94895.13;5071124;28;20839;-61
2022/08/02 09:55:30;;;;;;;0.90;0.90;;;;;;;27.21;44.14;94883.75;5071003;28;20287;-64
2022/08/02 09:57:56;;;;;;;7.68;1.27;;;;;;;27.62;43.23;94888.88;5071099;28;20634;-64
2022/08/02 10:00:22;;;;;;;1.13;0.70;;;;;;;27.78;44.03;94838.53;5070937;28;20197;-63
2022/08/02 10:03:10;;;;;;;1.20;1.10;;;;;;;28.23;45.01;94805.44;5071071;28;20203;-65
2022/08/02 10:05:50;;;;;;;1.40;0.88;;;;;;;28.34;44.73;94816.88;5070843;28;20689;-61
2022/08/02 10:08:16;;;;;;;1.00;0.90;;;;;;;28.17;42.99;94861.28;5052889;28;20595;-64
2022/08/02 10:10:42;;;;;;;1.20;1.10;;;;;;;27.59;43.57;94834.50;5070594;28;20205;-64
2022/08/02 10:13:27;;;;;;;1.00;1.00;;;;;;;27.23;44.15;94798.16;5052697;28;20582;-65
2022/08/02 10:15:53;;;;;;;3.28;1.10;;;;;;;26.92;46.33;94734.06;5070478;28;20262;-64
2022/08/02 10:18:18;;;;;;;2.00;1.10;;;;;;;26.87;46.73;94759.22;5052761;28;20204;-64
2022/08/02 10:20:44;;;;;;;1.67;1.20;;;;;;;26.88;47.45;94713.84;5070881;28;20231;-65
2022/08/02 10:23:12;;;;;;;1.77;1.67;;;;;;;27.62;46.38;94739.94;5073880;28;20191;-63
2022/08/02 10:25:39;;;;;;;2.13;0.93;;;;;;;28.24;47.65;94702.38;5074071;28;20260;-66
2022/08/02 10:28:08;;;;;;;3.58;1.67;;;;;;;28.79;44.14;94809.00;5073879;28;20224;-65
2022/08/02 10:30:39;;;;;;;1.65;1.10;;;;;;;29.36;43.36;94839.22;5073966;28;20295;-64
2022/08/02 10:33:07;;;;;;;0.90;0.90;;;;;;;29.61;39.92;94910.31;5074215;28;20704;-67
2022/08/02 10:35:37;;;;;;;0.82;0.80;;;;;;;30.07;40.24;94882.91;5073873;28;20701;-65
2022/08/02 10:38:06;;;;;;;1.02;0.95;;;;;;;30.13;39.91;94874.06;5073904;28;20671;-62
2022/08/02 10:40:48;;;;;;;1.00;0.90;;;;;;;30.33;43.02;94790.34;5073964;28;20586;-63
2022/08/02 10:43:42;;;;;;;2.03;1.00;;;;;;;30.25;38.77;94908.84;5073867;28;20274;-66
2022/08/02 10:46:26;;;;;;;1.10;1.00;;;;;;;30.71;40.27;94846.31;5073561;28;20211;-65
2022/08/02 10:49:03;;;;;;;1.90;1.10;;;;;;;30.74;39.54;94870.25;5073792;28;20597;-65
2022/08/02 10:52:01;;;;;;;0.88;0.88;;;;;;;29.40;39.67;94857.88;5073983;28;20580;-66
2022/08/02 10:54:39;;;;;;;1.38;1.00;;;;;;;28.73;40.84;94817.81;5029333;28;20212;-65
2022/08/02 10:57:21;;;;;;;1.02;1.02;;;;;;;28.37;42.90;94758.84;5073670;28;20215;-63
2022/08/02 10:59:48;;;;;;;0.88;0.80;;;;;;;28.54;40.75;94808.56;5073393;28;20200;-61
2022/08/02 11:02:36;;;;;;;3.60;1.25;;;;;;;29.54;41.48;94793.59;5055866;28;20355;-66
2022/08/02 11:05:06;;;;;;;1.15;1.00;;;;;;;29.74;41.37;94796.50;5073340;28;20204;-65
2022/08/02 11:07:45;;;;;;;2.53;0.80;;;;;;;30.83;38.54;94867.94;5073311;28;20208;-65
2022/08/02 11:10:38;;;;;;;1.10;1.00;;;;;;;30.77;37.63;94892.59;5055401;28;20189;-65
2022/08/02 11:13:13;;;;;;;0.90;0.90;;;;;;;31.41;36.98;94894.25;5069978;28;20228;-65
2022/08/02 11:15:49;;;;;;;0.88;0.80;;;;;;;30.90;37.71;94851.00;5055399;28;20638;-65
2022/08/02 11:18:14;;;;;;;1.58;1.00;;;;;;;30.75;38.58;94819.31;5055505;28;20693;-65
2022/08/02 11:20:39;;;;;;;3.92;0.85;;;;;;;31.00;37.26;94861.59;5073370;28;20205;-66
2022/08/02 11:23:33;;;;;;;0.90;0.90;;;;;;;30.39;37.21;94835.78;5073306;28;20192;-65
2022/08/02 11:25:58;;;;;;;1.27;1.17;;;;;;;30.46;37.20;94829.28;5073586;28;20269;-66
2022/08/02 11:28:24;;;;;;;1.17;1.05;;;;;;;30.76;38.47;94799.91;5073087;28;20212;-65
2022/08/02 11:31:00;;;;;;;0.88;0.80;;;;;;;31.37;36.41;94870.25;5073095;28;20233;-63
2022/08/02 11:33:33;;;;;;;0.82;0.82;;;;;;;31.64;35.84;94875.44;5071858;28;20193;-62
2022/08/02 11:36:04;;;;;;;3.13;0.93;;;;;;;31.90;36.52;94837.69;5073155;28;20199;-61
2022/08/02 11:38:29;;;;;;;1.88;1.10;;;;;;;32.26;35.76;94857.84;5072912;28;20685;-64
2022/08/02 11:40:55;;;;;;;4.30;0.80;;;;;;;30.59;37.23;94823.66;5073003;28;20209;-64
2022/08/02 11:43:23;;;;;;;0.80;0.80;;;;;;;30.05;38.49;94782.69;5054956;28;20284;-62